sensor_id;sensor_type;location;lat;lon;timestamp;temperature;humidity
21787;DHT22;11055;50.870;4.316;2023-02-28T00:00:10;4.10;99.90
21787;DHT22;11055;50.870;4.316;2023-02-28T00:02:38;4.10;99.90
21787;DHT22;11055;50.870;4.316;2023-02-28T00:05:04;4.10;99.90
21787;DHT22;11055;50.870;4.316;2023-02-28T00:07:31;4.10;99.90
21787;DHT22;11055;50.870;4.316;2023-02-28T00:09:57;4.00;99.90
21787;DHT22;11055;50.870;4.316;2023-02-28T00:12:26;3.90;99.90
21787;DHT22;11055;50.870;4.316;2023-02-28T00:14:52;3.90;99.90
21787;DHT22;11055;50.870;4.316;2023-02-28T00:17:18;4.00;99.90
21787;DHT22;11055;50.870;4.316;2023-02-28T00:19:47;3.90;99.90
21787;DHT22;11055;50.870;4.316;2023-02-28T00:22:14;3.80;99.90
21787;DHT22;11055;50.870;4.316;2023-02-28T00:24:40;3.90;99.90
21787;DHT22;11055;50.870;4.316;2023-02-28T00:27:06;3.90;99.90
21787;DHT22;11055;50.870;4.316;2023-02-28T00:29:32;3.90;99.90
21787;DHT22;11055;50.870;4.316;2023-02-28T00:31:57;4.00;99.90
21787;DHT22;11055;50.870;4.316;2023-02-28T00:34:23;4.00;99.90
21787;DHT22;11055;50.870;4.316;2023-02-28T00:36:49;3.90;99.90
21787;DHT22;11055;50.870;4.316;2023-02-28T00:39:15;3.70;99.90
21787;DHT22;11055;50.870;4.316;2023-02-28T00:41:41;3.70;99.90
21787;DHT22;11055;50.870;4.316;2023-02-28T00:44:06;3.70;99.90
21787;DHT22;11055;50.870;4.316;2023-02-28T00:46:32;3.70;99.90
21787;DHT22;11055;50.870;4.316;2023-02-28T00:48:58;3.80;99.90
21787;DHT22;11055;50.870;4.316;2023-02-28T00:51:24;3.70;99.90
21787;DHT22;11055;50.870;4.316;2023-02-28T00:53:49;3.70;99.90
21787;DHT22;11055;50.870;4.316;2023-02-28T00:56:15;3.90;99.90
21787;DHT22;11055;50.870;4.316;2023-02-28T00:58:41;3.60;99.90
21787;DHT22;11055;50.870;4.316;2023-02-28T01:01:06;3.70;99.90
21787;DHT22;11055;50.870;4.316;2023-02-28T01:03:32;3.60;99.90
21787;DHT22;11055;50.870;4.316;2023-02-28T01:05:58;3.60;99.90
21787;DHT22;11055;50.870;4.316;2023-02-28T01:08:23;3.50;99.90
21787;DHT22;11055;50.870;4.316;2023-02-28T01:10:49;3.30;99.90
21787;DHT22;11055;50.870;4.316;2023-02-28T01:13:15;3.30;99.90
21787;DHT22;11055;50.870;4.316;2023-02-28T01:15:48;3.50;99.90
21787;DHT22;11055;50.870;4.316;2023-02-28T01:18:15;3.50;99.90
21787;DHT22;11055;50.870;4.316;2023-02-28T01:20:40;3.60;99.90
21787;DHT22;11055;50.870;4.316;2023-02-28T01:23:06;3.50;99.90
21787;DHT22;11055;50.870;4.316;2023-02-28T01:25:34;3.60;99.90
21787;DHT22;11055;50.870;4.316;2023-02-28T01:28:01;3.60;99.90
21787;DHT22;11055;50.870;4.316;2023-02-28T01:30:27;3.70;99.90
21787;DHT22;11055;50.870;4.316;2023-02-28T01:32:53;3.50;99.90
21787;DHT22;11055;50.870;4.316;2023-02-28T01:35:19;3.50;99.90
21787;DHT22;11055;50.870;4.316;2023-02-28T01:37:45;3.50;99.90
21787;DHT22;11055;50.870;4.316;2023-02-28T01:40:11;3.50;99.90
21787;DHT22;11055;50.870;4.316;2023-02-28T01:42:37;3.50;99.90
21787;DHT22;11055;50.870;4.316;2023-02-28T01:47:55;3.40;99.90
21787;DHT22;11055;50.870;4.316;2023-02-28T01:50:27;3.30;99.90
21787;DHT22;11055;50.870;4.316;2023-02-28T01:52:57;3.30;99.90
21787;DHT22;11055;50.870;4.316;2023-02-28T01:55:26;3.20;99.90
21787;DHT22;11055;50.870;4.316;2023-02-28T01:57:56;3.10;99.90
21787;DHT22;11055;50.870;4.316;2023-02-28T02:00:27;3.10;99.90
21787;DHT22;11055;50.870;4.316;2023-02-28T02:02:58;3.10;99.90
21787;DHT22;11055;50.870;4.316;2023-02-28T02:05:28;3.20;99.90
21787;DHT22;11055;50.870;4.316;2023-02-28T02:07:59;3.10;99.90
21787;DHT22;11055;50.870;4.316;2023-02-28T02:10:34;3.20;99.90
21787;DHT22;11055;50.870;4.316;2023-02-28T02:18:50;3.10;99.90
21787;DHT22;11055;50.870;4.316;2023-02-28T02:30:24;3.10;99.90
21787;DHT22;11055;50.870;4.316;2023-02-28T02:43:22;2.90;99.90
21787;DHT22;11055;50.870;4.316;2023-02-28T02:45:59;2.90;99.90
21787;DHT22;11055;50.870;4.316;2023-02-28T02:48:30;2.90;99.90
21787;DHT22;11055;50.870;4.316;2023-02-28T02:51:00;2.90;99.90
21787;DHT22;11055;50.870;4.316;2023-02-28T02:53:32;3.00;99.90
21787;DHT22;11055;50.870;4.316;2023-02-28T02:56:01;2.90;99.90
21787;DHT22;11055;50.870;4.316;2023-02-28T02:58:33;2.80;99.90
21787;DHT22;11055;50.870;4.316;2023-02-28T03:01:02;2.90;99.90
21787;DHT22;11055;50.870;4.316;2023-02-28T03:03:29;2.80;99.90
21787;DHT22;11055;50.870;4.316;2023-02-28T03:06:00;2.80;99.90
21787;DHT22;11055;50.870;4.316;2023-02-28T03:08:27;2.70;99.90
21787;DHT22;11055;50.870;4.316;2023-02-28T03:11:02;2.60;99.90
21787;DHT22;11055;50.870;4.316;2023-02-28T03:27:31;2.50;99.90
21787;DHT22;11055;50.870;4.316;2023-02-28T03:30:04;2.40;99.90
21787;DHT22;11055;50.870;4.316;2023-02-28T03:32:54;2.30;99.90
21787;DHT22;11055;50.870;4.316;2023-02-28T03:35:26;2.50;99.90
21787;DHT22;11055;50.870;4.316;2023-02-28T03:38:00;2.30;99.90
21787;DHT22;11055;50.870;4.316;2023-02-28T03:40:30;2.40;99.90
21787;DHT22;11055;50.870;4.316;2023-02-28T03:43:09;2.60;99.90
21787;DHT22;11055;50.870;4.316;2023-02-28T03:45:39;2.70;99.90
21787;DHT22;11055;50.870;4.316;2023-02-28T03:48:26;2.70;99.90
21787;DHT22;11055;50.870;4.316;2023-02-28T03:50:57;2.80;99.90
21787;DHT22;11055;50.870;4.316;2023-02-28T03:53:52;2.70;99.90
21787;DHT22;11055;50.870;4.316;2023-02-28T03:56:38;2.80;99.90
21787;DHT22;11055;50.870;4.316;2023-02-28T03:59:06;2.70;99.90
21787;DHT22;11055;50.870;4.316;2023-02-28T04:01:39;2.60;99.90
21787;DHT22;11055;50.870;4.316;2023-02-28T04:04:10;2.50;99.90
21787;DHT22;11055;50.870;4.316;2023-02-28T04:06:36;2.60;99.90
21787;DHT22;11055;50.870;4.316;2023-02-28T04:09:04;2.50;99.90
21787;DHT22;11055;50.870;4.316;2023-02-28T04:14:03;2.50;99.90
21787;DHT22;11055;50.870;4.316;2023-02-28T04:16:30;2.70;99.90
21787;DHT22;11055;50.870;4.316;2023-02-28T04:18:55;2.70;99.90
21787;DHT22;11055;50.870;4.316;2023-02-28T04:21:48;2.90;99.90
21787;DHT22;11055;50.870;4.316;2023-02-28T04:24:23;2.70;99.90
21787;DHT22;11055;50.870;4.316;2023-02-28T04:26:51;2.70;99.90
21787;DHT22;11055;50.870;4.316;2023-02-28T04:31:48;2.70;99.90
21787;DHT22;11055;50.870;4.316;2023-02-28T04:34:13;2.70;99.90
21787;DHT22;11055;50.870;4.316;2023-02-28T04:36:39;2.70;99.90
21787;DHT22;11055;50.870;4.316;2023-02-28T04:39:05;2.80;99.90
21787;DHT22;11055;50.870;4.316;2023-02-28T04:41:31;2.80;99.90
21787;DHT22;11055;50.870;4.316;2023-02-28T04:43:57;2.80;99.90
21787;DHT22;11055;50.870;4.316;2023-02-28T04:46:23;2.90;99.90
21787;DHT22;11055;50.870;4.316;2023-02-28T04:48:49;2.90;99.90
21787;DHT22;11055;50.870;4.316;2023-02-28T04:51:16;2.80;99.90
21787;DHT22;11055;50.870;4.316;2023-02-28T04:53:42;2.80;99.90
21787;DHT22;11055;50.870;4.316;2023-02-28T04:56:16;2.70;99.90
21787;DHT22;11055;50.870;4.316;2023-02-28T04:58:42;2.90;99.90
21787;DHT22;11055;50.870;4.316;2023-02-28T05:01:24;2.90;99.90
21787;DHT22;11055;50.870;4.316;2023-02-28T05:03:51;2.70;99.90
21787;DHT22;11055;50.870;4.316;2023-02-28T05:06:18;2.70;99.90
21787;DHT22;11055;50.870;4.316;2023-02-28T05:08:43;2.60;99.90
21787;DHT22;11055;50.870;4.316;2023-02-28T05:11:16;2.60;99.90
21787;DHT22;11055;50.870;4.316;2023-02-28T05:13:42;2.70;99.90
21787;DHT22;11055;50.870;4.316;2023-02-28T05:16:08;2.60;99.90
21787;DHT22;11055;50.870;4.316;2023-02-28T05:18:34;2.70;99.90
21787;DHT22;11055;50.870;4.316;2023-02-28T05:21:00;2.80;99.90
21787;DHT22;11055;50.870;4.316;2023-02-28T05:23:27;2.70;99.90
21787;DHT22;11055;50.870;4.316;2023-02-28T05:25:53;2.80;99.90
21787;DHT22;11055;50.870;4.316;2023-02-28T05:28:20;2.90;99.90
21787;DHT22;11055;50.870;4.316;2023-02-28T05:30:46;2.80;99.90
21787;DHT22;11055;50.870;4.316;2023-02-28T05:33:12;2.80;99.90
21787;DHT22;11055;50.870;4.316;2023-02-28T05:35:41;2.80;99.90
21787;DHT22;11055;50.870;4.316;2023-02-28T05:38:10;2.90;99.90
21787;DHT22;11055;50.870;4.316;2023-02-28T05:40:38;3.00;99.90
21787;DHT22;11055;50.870;4.316;2023-02-28T05:43:04;3.10;99.90
21787;DHT22;11055;50.870;4.316;2023-02-28T05:45:30;3.10;99.90
21787;DHT22;11055;50.870;4.316;2023-02-28T05:47:56;3.20;99.90
21787;DHT22;11055;50.870;4.316;2023-02-28T05:50:21;3.20;99.90
21787;DHT22;11055;50.870;4.316;2023-02-28T05:52:51;3.20;99.90
21787;DHT22;11055;50.870;4.316;2023-02-28T05:55:16;3.20;99.90
21787;DHT22;11055;50.870;4.316;2023-02-28T05:57:42;3.30;99.90
21787;DHT22;11055;50.870;4.316;2023-02-28T06:00:09;3.30;99.90
21787;DHT22;11055;50.870;4.316;2023-02-28T06:02:35;3.20;99.90
21787;DHT22;11055;50.870;4.316;2023-02-28T06:05:01;3.20;99.90
21787;DHT22;11055;50.870;4.316;2023-02-28T06:07:27;3.00;99.90
21787;DHT22;11055;50.870;4.316;2023-02-28T06:09:52;3.10;99.90
21787;DHT22;11055;50.870;4.316;2023-02-28T06:12:18;2.90;99.90
21787;DHT22;11055;50.870;4.316;2023-02-28T06:14:43;2.70;99.90
21787;DHT22;11055;50.870;4.316;2023-02-28T06:17:09;2.90;99.90
21787;DHT22;11055;50.870;4.316;2023-02-28T06:19:37;3.00;99.90
21787;DHT22;11055;50.870;4.316;2023-02-28T06:22:04;3.10;99.90
21787;DHT22;11055;50.870;4.316;2023-02-28T06:24:30;3.10;99.90
21787;DHT22;11055;50.870;4.316;2023-02-28T06:26:56;3.20;99.90
21787;DHT22;11055;50.870;4.316;2023-02-28T06:29:24;3.30;99.90
21787;DHT22;11055;50.870;4.316;2023-02-28T06:31:50;3.10;99.90
21787;DHT22;11055;50.870;4.316;2023-02-28T06:34:18;3.10;99.90
21787;DHT22;11055;50.870;4.316;2023-02-28T06:36:44;3.10;99.90
21787;DHT22;11055;50.870;4.316;2023-02-28T06:39:10;3.10;99.90
21787;DHT22;11055;50.870;4.316;2023-02-28T06:41:36;3.30;99.90
21787;DHT22;11055;50.870;4.316;2023-02-28T06:44:16;3.40;99.90
21787;DHT22;11055;50.870;4.316;2023-02-28T06:46:46;3.40;99.90
21787;DHT22;11055;50.870;4.316;2023-02-28T06:49:11;3.30;99.90
21787;DHT22;11055;50.870;4.316;2023-02-28T06:51:39;3.20;99.90
21787;DHT22;11055;50.870;4.316;2023-02-28T06:54:05;3.20;99.90
21787;DHT22;11055;50.870;4.316;2023-02-28T06:56:34;3.40;99.90
21787;DHT22;11055;50.870;4.316;2023-02-28T06:59:00;3.40;99.90
21787;DHT22;11055;50.870;4.316;2023-02-28T07:01:26;3.50;99.90
21787;DHT22;11055;50.870;4.316;2023-02-28T07:03:53;3.60;99.90
21787;DHT22;11055;50.870;4.316;2023-02-28T07:06:21;3.60;99.90
21787;DHT22;11055;50.870;4.316;2023-02-28T07:08:48;3.60;99.90
21787;DHT22;11055;50.870;4.316;2023-02-28T07:11:14;3.70;99.90
21787;DHT22;11055;50.870;4.316;2023-02-28T07:13:40;3.90;99.90
21787;DHT22;11055;50.870;4.316;2023-02-28T07:16:08;3.70;99.90
21787;DHT22;11055;50.870;4.316;2023-02-28T07:18:35;3.70;99.90
21787;DHT22;11055;50.870;4.316;2023-02-28T07:21:05;3.70;99.90
21787;DHT22;11055;50.870;4.316;2023-02-28T07:23:32;3.50;99.90
21787;DHT22;11055;50.870;4.316;2023-02-28T07:25:58;3.30;99.90
21787;DHT22;11055;50.870;4.316;2023-02-28T07:28:24;3.40;99.90
21787;DHT22;11055;50.870;4.316;2023-02-28T07:30:49;3.40;99.90
21787;DHT22;11055;50.870;4.316;2023-02-28T07:33:15;3.40;99.90
21787;DHT22;11055;50.870;4.316;2023-02-28T07:35:41;3.50;99.90
21787;DHT22;11055;50.870;4.316;2023-02-28T07:38:07;3.60;99.90
21787;DHT22;11055;50.870;4.316;2023-02-28T07:40:34;3.60;99.90
21787;DHT22;11055;50.870;4.316;2023-02-28T07:43:01;3.60;99.90
21787;DHT22;11055;50.870;4.316;2023-02-28T07:45:27;3.70;99.90
21787;DHT22;11055;50.870;4.316;2023-02-28T07:47:54;3.70;99.90
21787;DHT22;11055;50.870;4.316;2023-02-28T07:50:20;3.80;99.90
21787;DHT22;11055;50.870;4.316;2023-02-28T07:52:46;3.80;99.90
21787;DHT22;11055;50.870;4.316;2023-02-28T07:55:12;3.80;99.90
21787;DHT22;11055;50.870;4.316;2023-02-28T07:57:39;3.70;99.90
21787;DHT22;11055;50.870;4.316;2023-02-28T08:00:07;3.70;99.90
21787;DHT22;11055;50.870;4.316;2023-02-28T08:02:35;3.50;99.90
21787;DHT22;11055;50.870;4.316;2023-02-28T08:05:04;3.50;99.90
21787;DHT22;11055;50.870;4.316;2023-02-28T08:07:30;3.60;99.90
21787;DHT22;11055;50.870;4.316;2023-02-28T08:09:59;3.70;99.90
21787;DHT22;11055;50.870;4.316;2023-02-28T08:12:25;3.70;99.90
21787;DHT22;11055;50.870;4.316;2023-02-28T08:14:51;3.70;99.90
21787;DHT22;11055;50.870;4.316;2023-02-28T08:17:16;3.80;99.90
21787;DHT22;11055;50.870;4.316;2023-02-28T08:19:44;3.70;99.90
21787;DHT22;11055;50.870;4.316;2023-02-28T08:22:10;3.70;99.90
21787;DHT22;11055;50.870;4.316;2023-02-28T08:24:36;3.70;99.90
21787;DHT22;11055;50.870;4.316;2023-02-28T08:27:01;3.80;99.90
21787;DHT22;11055;50.870;4.316;2023-02-28T08:29:27;3.70;99.90
21787;DHT22;11055;50.870;4.316;2023-02-28T08:31:53;3.70;99.90
21787;DHT22;11055;50.870;4.316;2023-02-28T08:34:18;3.80;99.90
21787;DHT22;11055;50.870;4.316;2023-02-28T08:36:44;3.90;99.90
21787;DHT22;11055;50.870;4.316;2023-02-28T08:39:11;4.00;99.90
21787;DHT22;11055;50.870;4.316;2023-02-28T08:41:37;4.00;99.90
21787;DHT22;11055;50.870;4.316;2023-02-28T08:44:03;3.90;99.90
21787;DHT22;11055;50.870;4.316;2023-02-28T08:46:29;4.00;99.90
21787;DHT22;11055;50.870;4.316;2023-02-28T08:48:56;3.90;99.90
21787;DHT22;11055;50.870;4.316;2023-02-28T08:51:24;3.80;99.90
21787;DHT22;11055;50.870;4.316;2023-02-28T08:53:58;3.80;99.90
21787;DHT22;11055;50.870;4.316;2023-02-28T08:56:25;3.80;99.90
21787;DHT22;11055;50.870;4.316;2023-02-28T08:58:51;3.80;99.90
21787;DHT22;11055;50.870;4.316;2023-02-28T09:01:19;3.70;99.90
21787;DHT22;11055;50.870;4.316;2023-02-28T09:03:46;3.70;99.90
21787;DHT22;11055;50.870;4.316;2023-02-28T09:06:13;3.70;99.90
21787;DHT22;11055;50.870;4.316;2023-02-28T09:08:39;3.70;99.90
21787;DHT22;11055;50.870;4.316;2023-02-28T09:11:06;3.80;99.90
21787;DHT22;11055;50.870;4.316;2023-02-28T09:13:33;3.90;99.90
21787;DHT22;11055;50.870;4.316;2023-02-28T09:16:01;4.00;99.90
21787;DHT22;11055;50.870;4.316;2023-02-28T09:18:28;4.10;99.90
21787;DHT22;11055;50.870;4.316;2023-02-28T09:20:53;4.10;99.90
21787;DHT22;11055;50.870;4.316;2023-02-28T09:23:20;4.10;99.90
21787;DHT22;11055;50.870;4.316;2023-02-28T09:25:54;4.20;99.90
21787;DHT22;11055;50.870;4.316;2023-02-28T09:28:20;4.10;99.90
21787;DHT22;11055;50.870;4.316;2023-02-28T09:30:48;4.10;99.90
21787;DHT22;11055;50.870;4.316;2023-02-28T09:33:15;4.10;99.90
21787;DHT22;11055;50.870;4.316;2023-02-28T09:35:42;4.10;99.90
21787;DHT22;11055;50.870;4.316;2023-02-28T09:38:09;4.20;99.90
21787;DHT22;11055;50.870;4.316;2023-02-28T09:40:56;4.20;99.90
21787;DHT22;11055;50.870;4.316;2023-02-28T09:43:24;4.20;99.90
21787;DHT22;11055;50.870;4.316;2023-02-28T09:46:12;4.30;99.90
21787;DHT22;11055;50.870;4.316;2023-02-28T09:48:42;4.20;99.90
21787;DHT22;11055;50.870;4.316;2023-02-28T09:53:55;4.30;99.90
21787;DHT22;11055;50.870;4.316;2023-02-28T09:56:25;4.30;99.90
21787;DHT22;11055;50.870;4.316;2023-02-28T09:58:58;4.40;99.90
21787;DHT22;11055;50.870;4.316;2023-02-28T10:01:27;4.40;99.90
21787;DHT22;11055;50.870;4.316;2023-02-28T10:10:51;4.50;99.90
21787;DHT22;11055;50.870;4.316;2023-02-28T10:16:26;4.40;99.90
21787;DHT22;11055;50.870;4.316;2023-02-28T10:19:14;4.50;99.70
21787;DHT22;11055;50.870;4.316;2023-02-28T10:22:03;4.50;98.80
21787;DHT22;11055;50.870;4.316;2023-02-28T10:24:35;4.50;98.80
21787;DHT22;11055;50.870;4.316;2023-02-28T10:27:05;4.50;99.10
21787;DHT22;11055;50.870;4.316;2023-02-28T10:29:32;4.70;98.90
21787;DHT22;11055;50.870;4.316;2023-02-28T10:32:01;4.70;98.10
21787;DHT22;11055;50.870;4.316;2023-02-28T10:34:27;4.70;97.40
21787;DHT22;11055;50.870;4.316;2023-02-28T10:36:53;4.50;97.30
21787;DHT22;11055;50.870;4.316;2023-02-28T10:39:46;4.50;97.10
21787;DHT22;11055;50.870;4.316;2023-02-28T10:42:29;4.60;97.60
21787;DHT22;11055;50.870;4.316;2023-02-28T10:45:15;4.70;97.30
21787;DHT22;11055;50.870;4.316;2023-02-28T10:48:02;4.70;96.30
21787;DHT22;11055;50.870;4.316;2023-02-28T10:55:36;4.60;93.40
21787;DHT22;11055;50.870;4.316;2023-02-28T10:58:02;4.60;92.80
21787;DHT22;11055;50.870;4.316;2023-02-28T11:00:34;4.70;92.70
21787;DHT22;11055;50.870;4.316;2023-02-28T11:03:00;4.80;91.70
21787;DHT22;11055;50.870;4.316;2023-02-28T11:05:35;4.90;91.50
21787;DHT22;11055;50.870;4.316;2023-02-28T11:08:14;5.00;90.60
21787;DHT22;11055;50.870;4.316;2023-02-28T11:10:46;5.10;90.50
21787;DHT22;11055;50.870;4.316;2023-02-28T11:13:20;5.00;90.20
21787;DHT22;11055;50.870;4.316;2023-02-28T11:15:54;5.00;90.60
21787;DHT22;11055;50.870;4.316;2023-02-28T11:19:07;5.10;90.70
21787;DHT22;11055;50.870;4.316;2023-02-28T11:21:37;5.00;89.90
21787;DHT22;11055;50.870;4.316;2023-02-28T11:26:45;4.90;91.40
21787;DHT22;11055;50.870;4.316;2023-02-28T11:29:22;4.80;91.30
21787;DHT22;11055;50.870;4.316;2023-02-28T11:34:37;5.00;91.90
21787;DHT22;11055;50.870;4.316;2023-02-28T11:37:09;5.10;91.40
21787;DHT22;11055;50.870;4.316;2023-02-28T11:39:37;5.10;91.50
21787;DHT22;11055;50.870;4.316;2023-02-28T11:50:20;5.40;90.30
21787;DHT22;11055;50.870;4.316;2023-02-28T11:55:42;5.60;89.90
21787;DHT22;11055;50.870;4.316;2023-02-28T12:06:40;5.40;85.90
21787;DHT22;11055;50.870;4.316;2023-02-28T12:09:44;5.40;85.00
21787;DHT22;11055;50.870;4.316;2023-02-28T12:28:14;9.60;76.30
21787;DHT22;11055;50.870;4.316;2023-02-28T12:30:56;13.40;59.70
21787;DHT22;11055;50.870;4.316;2023-02-28T12:33:28;16.00;49.00
21787;DHT22;11055;50.870;4.316;2023-02-28T12:35:59;17.40;43.70
21787;DHT22;11055;50.870;4.316;2023-02-28T12:41:19;22.60;31.10
21787;DHT22;11055;50.870;4.316;2023-02-28T12:47:01;26.10;26.00
21787;DHT22;11055;50.870;4.316;2023-02-28T12:49:47;24.20;24.80
21787;DHT22;11055;50.870;4.316;2023-02-28T12:52:19;22.70;26.20
21787;DHT22;11055;50.870;4.316;2023-02-28T12:55:01;23.20;25.80
21787;DHT22;11055;50.870;4.316;2023-02-28T13:01:02;24.30;24.50
21787;DHT22;11055;50.870;4.316;2023-02-28T13:06:40;28.20;22.70
21787;DHT22;11055;50.870;4.316;2023-02-28T13:09:16;30.10;22.00
21787;DHT22;11055;50.870;4.316;2023-02-28T13:11:51;30.80;21.00
21787;DHT22;11055;50.870;4.316;2023-02-28T13:14:46;29.90;20.00
21787;DHT22;11055;50.870;4.316;2023-02-28T13:17:16;30.30;19.70
21787;DHT22;11055;50.870;4.316;2023-02-28T13:22:40;29.40;19.90
21787;DHT22;11055;50.870;4.316;2023-02-28T13:27:48;31.10;19.20
21787;DHT22;11055;50.870;4.316;2023-02-28T13:38:51;32.50;17.30
21787;DHT22;11055;50.870;4.316;2023-02-28T13:44:15;28.00;18.50
21787;DHT22;11055;50.870;4.316;2023-02-28T13:52:02;29.20;17.80
21787;DHT22;11055;50.870;4.316;2023-02-28T14:06:29;28.10;19.60
21787;DHT22;11055;50.870;4.316;2023-02-28T14:11:42;26.00;20.40
21787;DHT22;11055;50.870;4.316;2023-02-28T14:14:10;27.00;19.80
21787;DHT22;11055;50.870;4.316;2023-02-28T14:16:55;27.50;19.70
21787;DHT22;11055;50.870;4.316;2023-02-28T14:19:28;27.60;19.20
21787;DHT22;11055;50.870;4.316;2023-02-28T14:30:20;23.30;21.70
21787;DHT22;11055;50.870;4.316;2023-02-28T14:38:18;21.30;23.30
21787;DHT22;11055;50.870;4.316;2023-02-28T14:40:48;18.70;25.70
21787;DHT22;11055;50.870;4.316;2023-02-28T14:43:24;15.60;28.10
21787;DHT22;11055;50.870;4.316;2023-02-28T14:45:56;12.90;31.10
21787;DHT22;11055;50.870;4.316;2023-02-28T14:48:23;11.80;33.40
21787;DHT22;11055;50.870;4.316;2023-02-28T14:50:53;11.20;34.70
21787;DHT22;11055;50.870;4.316;2023-02-28T14:53:21;10.30;36.30
21787;DHT22;11055;50.870;4.316;2023-02-28T14:55:48;9.80;37.40
21787;DHT22;11055;50.870;4.316;2023-02-28T15:00:51;9.30;39.50
21787;DHT22;11055;50.870;4.316;2023-02-28T15:03:39;9.20;39.70
21787;DHT22;11055;50.870;4.316;2023-02-28T15:06:16;9.10;40.00
21787;DHT22;11055;50.870;4.316;2023-02-28T15:08:44;8.80;40.40
21787;DHT22;11055;50.870;4.316;2023-02-28T15:11:18;8.60;40.70
21787;DHT22;11055;50.870;4.316;2023-02-28T15:13:52;8.30;41.40
21787;DHT22;11055;50.870;4.316;2023-02-28T15:16:22;8.20;42.30
21787;DHT22;11055;50.870;4.316;2023-02-28T15:24:10;8.00;43.00
21787;DHT22;11055;50.870;4.316;2023-02-28T15:26:42;7.90;43.50
21787;DHT22;11055;50.870;4.316;2023-02-28T15:29:13;7.90;43.60
21787;DHT22;11055;50.870;4.316;2023-02-28T15:31:44;7.90;44.10
21787;DHT22;11055;50.870;4.316;2023-02-28T15:34:22;7.70;44.40
21787;DHT22;11055;50.870;4.316;2023-02-28T15:36:48;7.60;44.90
21787;DHT22;11055;50.870;4.316;2023-02-28T15:39:23;7.60;45.20
21787;DHT22;11055;50.870;4.316;2023-02-28T15:41:50;7.50;45.40
21787;DHT22;11055;50.870;4.316;2023-02-28T15:44:27;7.40;45.60
21787;DHT22;11055;50.870;4.316;2023-02-28T15:47:18;7.50;45.70
21787;DHT22;11055;50.870;4.316;2023-02-28T15:49:53;7.60;45.80
21787;DHT22;11055;50.870;4.316;2023-02-28T15:54:52;7.60;45.80
21787;DHT22;11055;50.870;4.316;2023-02-28T15:57:21;7.70;45.70
21787;DHT22;11055;50.870;4.316;2023-02-28T15:59:56;7.60;45.70
21787;DHT22;11055;50.870;4.316;2023-02-28T16:02:32;7.50;46.10
21787;DHT22;11055;50.870;4.316;2023-02-28T16:07:37;7.30;46.80
21787;DHT22;11055;50.870;4.316;2023-02-28T16:10:04;7.30;46.90
21787;DHT22;11055;50.870;4.316;2023-02-28T16:12:33;7.20;47.20
21787;DHT22;11055;50.870;4.316;2023-02-28T16:15:02;7.10;47.40
21787;DHT22;11055;50.870;4.316;2023-02-28T16:17:33;6.90;47.60
21787;DHT22;11055;50.870;4.316;2023-02-28T16:19:59;6.90;47.80
21787;DHT22;11055;50.870;4.316;2023-02-28T16:22:25;6.90;47.90
21787;DHT22;11055;50.870;4.316;2023-02-28T16:24:51;6.80;48.00
21787;DHT22;11055;50.870;4.316;2023-02-28T16:27:31;6.70;48.70
21787;DHT22;11055;50.870;4.316;2023-02-28T16:29:58;6.70;49.20
21787;DHT22;11055;50.870;4.316;2023-02-28T16:32:24;6.70;49.20
21787;DHT22;11055;50.870;4.316;2023-02-28T16:34:49;6.60;49.30
21787;DHT22;11055;50.870;4.316;2023-02-28T16:37:17;6.60;49.70
21787;DHT22;11055;50.870;4.316;2023-02-28T16:39:44;6.50;49.90
21787;DHT22;11055;50.870;4.316;2023-02-28T16:42:22;6.50;49.80
21787;DHT22;11055;50.870;4.316;2023-02-28T16:44:48;6.50;50.00
21787;DHT22;11055;50.870;4.316;2023-02-28T16:47:14;6.50;50.10
21787;DHT22;11055;50.870;4.316;2023-02-28T16:49:40;6.50;50.50
21787;DHT22;11055;50.870;4.316;2023-02-28T16:52:11;6.40;50.70
21787;DHT22;11055;50.870;4.316;2023-02-28T16:54:40;6.50;50.80
21787;DHT22;11055;50.870;4.316;2023-02-28T16:57:17;6.40;50.80
21787;DHT22;11055;50.870;4.316;2023-02-28T16:59:43;6.40;51.20
21787;DHT22;11055;50.870;4.316;2023-02-28T17:02:19;6.50;51.40
21787;DHT22;11055;50.870;4.316;2023-02-28T17:04:45;6.50;51.70
21787;DHT22;11055;50.870;4.316;2023-02-28T17:07:12;6.50;51.90
21787;DHT22;11055;50.870;4.316;2023-02-28T17:09:39;6.30;52.10
21787;DHT22;11055;50.870;4.316;2023-02-28T17:12:06;6.20;52.40
21787;DHT22;11055;50.870;4.316;2023-02-28T17:14:32;6.30;52.70
21787;DHT22;11055;50.870;4.316;2023-02-28T17:16:57;6.30;52.90
21787;DHT22;11055;50.870;4.316;2023-02-28T17:19:23;6.20;53.00
21787;DHT22;11055;50.870;4.316;2023-02-28T17:21:48;6.20;53.10
21787;DHT22;11055;50.870;4.316;2023-02-28T17:24:14;6.10;53.60
21787;DHT22;11055;50.870;4.316;2023-02-28T17:26:41;6.10;54.00
21787;DHT22;11055;50.870;4.316;2023-02-28T17:29:19;6.10;54.00
21787;DHT22;11055;50.870;4.316;2023-02-28T17:31:45;6.10;54.30
21787;DHT22;11055;50.870;4.316;2023-02-28T17:34:11;6.10;54.40
21787;DHT22;11055;50.870;4.316;2023-02-28T17:36:36;6.10;54.70
21787;DHT22;11055;50.870;4.316;2023-02-28T17:39:04;6.00;55.10
21787;DHT22;11055;50.870;4.316;2023-02-28T17:41:32;6.00;55.30
21787;DHT22;11055;50.870;4.316;2023-02-28T17:43:57;5.90;55.70
21787;DHT22;11055;50.870;4.316;2023-02-28T17:46:24;5.90;55.80
21787;DHT22;11055;50.870;4.316;2023-02-28T17:48:51;6.00;55.90
21787;DHT22;11055;50.870;4.316;2023-02-28T17:51:19;6.10;55.80
21787;DHT22;11055;50.870;4.316;2023-02-28T17:53:46;6.10;55.90
21787;DHT22;11055;50.870;4.316;2023-02-28T17:56:17;6.00;56.10
21787;DHT22;11055;50.870;4.316;2023-02-28T17:58:44;6.00;56.40
21787;DHT22;11055;50.870;4.316;2023-02-28T18:01:09;6.00;56.40
21787;DHT22;11055;50.870;4.316;2023-02-28T18:03:37;5.90;56.70
21787;DHT22;11055;50.870;4.316;2023-02-28T18:06:04;5.90;57.10
21787;DHT22;11055;50.870;4.316;2023-02-28T18:08:32;5.90;57.50
21787;DHT22;11055;50.870;4.316;2023-02-28T18:11:00;5.80;57.60
21787;DHT22;11055;50.870;4.316;2023-02-28T18:13:25;5.80;57.90
21787;DHT22;11055;50.870;4.316;2023-02-28T18:15:53;5.80;58.40
21787;DHT22;11055;50.870;4.316;2023-02-28T18:18:19;5.80;58.60
21787;DHT22;11055;50.870;4.316;2023-02-28T18:20:45;6.00;58.70
21787;DHT22;11055;50.870;4.316;2023-02-28T18:23:13;6.10;58.50
21787;DHT22;11055;50.870;4.316;2023-02-28T18:25:39;6.30;58.20
21787;DHT22;11055;50.870;4.316;2023-02-28T18:28:06;6.40;58.00
21787;DHT22;11055;50.870;4.316;2023-02-28T18:30:35;6.40;57.90
21787;DHT22;11055;50.870;4.316;2023-02-28T18:33:02;6.40;58.10
21787;DHT22;11055;50.870;4.316;2023-02-28T18:35:29;6.20;58.30
21787;DHT22;11055;50.870;4.316;2023-02-28T18:38:07;6.10;59.00
21787;DHT22;11055;50.870;4.316;2023-02-28T18:40:34;6.10;59.30
21787;DHT22;11055;50.870;4.316;2023-02-28T18:43:00;6.00;59.70
21787;DHT22;11055;50.870;4.316;2023-02-28T18:45:26;5.90;59.90
21787;DHT22;11055;50.870;4.316;2023-02-28T18:47:52;5.90;60.40
21787;DHT22;11055;50.870;4.316;2023-02-28T18:50:18;5.90;60.50
21787;DHT22;11055;50.870;4.316;2023-02-28T18:52:44;5.90;61.00
21787;DHT22;11055;50.870;4.316;2023-02-28T18:55:09;5.90;61.20
21787;DHT22;11055;50.870;4.316;2023-02-28T18:57:36;6.00;61.10
21787;DHT22;11055;50.870;4.316;2023-02-28T19:00:02;6.10;60.70